sensor_id;sensor_type;location;lat;lon;timestamp;temperature;humidity
21001;DHT22;10658;50.920;12.238;2023-07-28T00:00:08;17.40;99.90
21001;DHT22;10658;50.920;12.238;2023-07-28T00:04:15;17.40;99.90
21001;DHT22;10658;50.920;12.238;2023-07-28T00:08:16;17.40;99.90
21001;DHT22;10658;50.920;12.238;2023-07-28T00:12:16;17.40;99.90
21001;DHT22;10658;50.920;12.238;2023-07-28T00:16:17;17.40;99.90
21001;DHT22;10658;50.920;12.238;2023-07-28T00:20:18;17.30;99.90
21001;DHT22;10658;50.920;12.238;2023-07-28T00:24:19;17.30;99.90
21001;DHT22;10658;50.920;12.238;2023-07-28T00:28:20;17.40;99.90
21001;DHT22;10658;50.920;12.238;2023-07-28T00:32:21;17.40;99.90
21001;DHT22;10658;50.920;12.238;2023-07-28T00:36:22;17.30;99.90
21001;DHT22;10658;50.920;12.238;2023-07-28T00:40:23;17.30;99.90
21001;DHT22;10658;50.920;12.238;2023-07-28T00:44:24;17.30;99.90
21001;DHT22;10658;50.920;12.238;2023-07-28T00:48:24;17.30;99.90
21001;DHT22;10658;50.920;12.238;2023-07-28T00:52:26;17.30;99.90
21001;DHT22;10658;50.920;12.238;2023-07-28T00:56:27;17.30;99.90
21001;DHT22;10658;50.920;12.238;2023-07-28T01:00:28;17.30;99.90
21001;DHT22;10658;50.920;12.238;2023-07-28T01:04:29;17.30;99.90
21001;DHT22;10658;50.920;12.238;2023-07-28T01:12:55;17.30;99.90
21001;DHT22;10658;50.920;12.238;2023-07-28T01:16:56;17.20;99.90
21001;DHT22;10658;50.920;12.238;2023-07-28T01:20:57;17.20;99.90
21001;DHT22;10658;50.920;12.238;2023-07-28T01:29:14;17.30;99.90
21001;DHT22;10658;50.920;12.238;2023-07-28T01:33:16;17.20;99.90
21001;DHT22;10658;50.920;12.238;2023-07-28T01:37:17;17.20;99.90
21001;DHT22;10658;50.920;12.238;2023-07-28T01:41:17;17.20;99.90
21001;DHT22;10658;50.920;12.238;2023-07-28T01:45:18;17.20;99.90
21001;DHT22;10658;50.920;12.238;2023-07-28T01:49:19;17.20;99.90
21001;DHT22;10658;50.920;12.238;2023-07-28T01:53:20;17.10;99.90
21001;DHT22;10658;50.920;12.238;2023-07-28T01:57:21;17.20;99.90
21001;DHT22;10658;50.920;12.238;2023-07-28T02:01:21;17.10;99.90
21001;DHT22;10658;50.920;12.238;2023-07-28T02:05:22;17.10;99.90
21001;DHT22;10658;50.920;12.238;2023-07-28T02:09:23;17.10;99.90
21001;DHT22;10658;50.920;12.238;2023-07-28T02:13:24;17.00;99.90
21001;DHT22;10658;50.920;12.238;2023-07-28T02:17:24;17.10;99.90
21001;DHT22;10658;50.920;12.238;2023-07-28T02:21:25;17.10;99.90
21001;DHT22;10658;50.920;12.238;2023-07-28T02:25:27;17.00;99.90
21001;DHT22;10658;50.920;12.238;2023-07-28T02:29:28;17.00;99.90
21001;DHT22;10658;50.920;12.238;2023-07-28T02:33:28;17.00;99.90
21001;DHT22;10658;50.920;12.238;2023-07-28T02:37:36;17.10;99.90
21001;DHT22;10658;50.920;12.238;2023-07-28T02:41:37;17.00;99.90
21001;DHT22;10658;50.920;12.238;2023-07-28T02:45:38;17.00;99.90
21001;DHT22;10658;50.920;12.238;2023-07-28T02:49:40;17.10;99.90
21001;DHT22;10658;50.920;12.238;2023-07-28T02:53:41;17.10;99.90
21001;DHT22;10658;50.920;12.238;2023-07-28T02:57:42;17.10;99.90
21001;DHT22;10658;50.920;12.238;2023-07-28T03:01:43;17.10;99.90
21001;DHT22;10658;50.920;12.238;2023-07-28T03:05:46;17.00;99.90
21001;DHT22;10658;50.920;12.238;2023-07-28T03:10:02;17.00;99.90
21001;DHT22;10658;50.920;12.238;2023-07-28T03:14:05;17.00;99.90
21001;DHT22;10658;50.920;12.238;2023-07-28T03:18:08;17.00;99.90
21001;DHT22;10658;50.920;12.238;2023-07-28T03:22:12;17.00;99.90
21001;DHT22;10658;50.920;12.238;2023-07-28T03:26:20;17.00;99.90
21001;DHT22;10658;50.920;12.238;2023-07-28T03:30:28;17.00;99.90
21001;DHT22;10658;50.920;12.238;2023-07-28T03:34:31;17.00;99.90
21001;DHT22;10658;50.920;12.238;2023-07-28T03:38:36;17.00;99.90
21001;DHT22;10658;50.920;12.238;2023-07-28T03:42:41;17.00;99.90
21001;DHT22;10658;50.920;12.238;2023-07-28T03:46:43;17.00;99.90
21001;DHT22;10658;50.920;12.238;2023-07-28T03:50:48;17.10;99.90
21001;DHT22;10658;50.920;12.238;2023-07-28T03:54:54;17.00;99.90
21001;DHT22;10658;50.920;12.238;2023-07-28T03:58:59;17.00;99.90
21001;DHT22;10658;50.920;12.238;2023-07-28T04:03:03;17.00;99.90
21001;DHT22;10658;50.920;12.238;2023-07-28T04:07:57;17.00;99.90
21001;DHT22;10658;50.920;12.238;2023-07-28T04:12:03;17.00;99.90
21001;DHT22;10658;50.920;12.238;2023-07-28T04:16:19;17.10;99.90
21001;DHT22;10658;50.920;12.238;2023-07-28T04:20:32;17.10;99.90
21001;DHT22;10658;50.920;12.238;2023-07-28T04:24:47;17.10;99.90
21001;DHT22;10658;50.920;12.238;2023-07-28T04:28:56;17.10;99.90
21001;DHT22;10658;50.920;12.238;2023-07-28T04:33:01;17.20;99.90
21001;DHT22;10658;50.920;12.238;2023-07-28T04:37:11;17.10;99.90
21001;DHT22;10658;50.920;12.238;2023-07-28T04:41:36;17.20;99.90
21001;DHT22;10658;50.920;12.238;2023-07-28T04:45:45;17.10;99.90
21001;DHT22;10658;50.920;12.238;2023-07-28T04:50:07;17.20;99.90
21001;DHT22;10658;50.920;12.238;2023-07-28T04:54:30;17.30;99.90
21001;DHT22;10658;50.920;12.238;2023-07-28T04:58:43;17.30;99.90
21001;DHT22;10658;50.920;12.238;2023-07-28T05:02:49;17.30;99.90
21001;DHT22;10658;50.920;12.238;2023-07-28T05:07:03;17.30;99.90
21001;DHT22;10658;50.920;12.238;2023-07-28T05:11:12;17.30;99.90
21001;DHT22;10658;50.920;12.238;2023-07-28T05:15:30;17.30;99.90
21001;DHT22;10658;50.920;12.238;2023-07-28T05:19:39;17.40;99.90
21001;DHT22;10658;50.920;12.238;2023-07-28T05:24:01;17.40;99.90
21001;DHT22;10658;50.920;12.238;2023-07-28T05:28:10;17.50;99.90
21001;DHT22;10658;50.920;12.238;2023-07-28T05:32:16;17.60;99.90
21001;DHT22;10658;50.920;12.238;2023-07-28T05:41:18;17.60;99.90
21001;DHT22;10658;50.920;12.238;2023-07-28T05:45:22;17.60;99.90
21001;DHT22;10658;50.920;12.238;2023-07-28T05:49:29;17.60;99.90
21001;DHT22;10658;50.920;12.238;2023-07-28T05:53:38;17.60;99.90
21001;DHT22;10658;50.920;12.238;2023-07-28T05:57:43;17.60;99.90
21001;DHT22;10658;50.920;12.238;2023-07-28T06:01:47;17.60;99.90
21001;DHT22;10658;50.920;12.238;2023-07-28T06:06:13;17.60;99.90
21001;DHT22;10658;50.920;12.238;2023-07-28T06:10:20;17.70;99.90
21001;DHT22;10658;50.920;12.238;2023-07-28T06:14:35;17.70;99.90
21001;DHT22;10658;50.920;12.238;2023-07-28T06:18:53;17.70;99.90
21001;DHT22;10658;50.920;12.238;2023-07-28T06:23:03;17.80;99.90
21001;DHT22;10658;50.920;12.238;2023-07-28T06:27:19;17.80;99.90
21001;DHT22;10658;50.920;12.238;2023-07-28T06:31:35;17.80;99.90
21001;DHT22;10658;50.920;12.238;2023-07-28T06:35:38;17.80;99.90
21001;DHT22;10658;50.920;12.238;2023-07-28T06:40:00;17.90;99.90
21001;DHT22;10658;50.920;12.238;2023-07-28T06:44:06;18.00;99.90
21001;DHT22;10658;50.920;12.238;2023-07-28T06:48:13;18.00;99.90
21001;DHT22;10658;50.920;12.238;2023-07-28T06:52:25;18.00;99.90
21001;DHT22;10658;50.920;12.238;2023-07-28T06:56:40;18.10;99.90
21001;DHT22;10658;50.920;12.238;2023-07-28T07:01:06;18.40;99.90
21001;DHT22;10658;50.920;12.238;2023-07-28T07:09:50;19.50;99.90
21001;DHT22;10658;50.920;12.238;2023-07-28T07:14:07;19.70;99.90
21001;DHT22;10658;50.920;12.238;2023-07-28T07:18:17;20.10;99.90
21001;DHT22;10658;50.920;12.238;2023-07-28T07:22:28;20.00;99.90
21001;DHT22;10658;50.920;12.238;2023-07-28T07:26:44;19.90;99.90
21001;DHT22;10658;50.920;12.238;2023-07-28T07:30:59;19.60;99.90
21001;DHT22;10658;50.920;12.238;2023-07-28T07:35:13;19.80;99.90
21001;DHT22;10658;50.920;12.238;2023-07-28T07:39:46;20.20;99.90
21001;DHT22;10658;50.920;12.238;2023-07-28T07:44:17;20.80;99.90
21001;DHT22;10658;50.920;12.238;2023-07-28T07:48:41;21.00;99.90
21001;DHT22;10658;50.920;12.238;2023-07-28T07:52:59;21.40;99.90
21001;DHT22;10658;50.920;12.238;2023-07-28T07:57:33;21.60;99.90
21001;DHT22;10658;50.920;12.238;2023-07-28T08:01:48;21.50;99.90
21001;DHT22;10658;50.920;12.238;2023-07-28T08:05:51;21.80;99.90
21001;DHT22;10658;50.920;12.238;2023-07-28T08:09:55;22.20;99.90
21001;DHT22;10658;50.920;12.238;2023-07-28T08:14:02;22.00;99.90
21001;DHT22;10658;50.920;12.238;2023-07-28T08:18:12;22.40;99.90
21001;DHT22;10658;50.920;12.238;2023-07-28T08:22:22;23.20;99.90
21001;DHT22;10658;50.920;12.238;2023-07-28T08:26:30;23.00;99.90
21001;DHT22;10658;50.920;12.238;2023-07-28T08:30:33;22.40;99.90
21001;DHT22;10658;50.920;12.238;2023-07-28T08:34:36;21.80;99.90
21001;DHT22;10658;50.920;12.238;2023-07-28T08:38:39;21.60;99.90
21001;DHT22;10658;50.920;12.238;2023-07-28T08:42:42;21.80;99.90
21001;DHT22;10658;50.920;12.238;2023-07-28T08:46:44;21.40;99.90
21001;DHT22;10658;50.920;12.238;2023-07-28T08:50:44;21.20;99.90
21001;DHT22;10658;50.920;12.238;2023-07-28T08:54:45;21.30;99.90
21001;DHT22;10658;50.920;12.238;2023-07-28T08:58:46;21.20;99.90
21001;DHT22;10658;50.920;12.238;2023-07-28T09:02:49;21.10;99.90
21001;DHT22;10658;50.920;12.238;2023-07-28T09:06:51;21.10;99.90
21001;DHT22;10658;50.920;12.238;2023-07-28T09:10:51;21.10;99.90
21001;DHT22;10658;50.920;12.238;2023-07-28T09:14:58;21.10;99.90
21001;DHT22;10658;50.920;12.238;2023-07-28T09:19:06;21.20;99.90
21001;DHT22;10658;50.920;12.238;2023-07-28T09:23:08;21.30;99.90
21001;DHT22;10658;50.920;12.238;2023-07-28T09:27:19;21.50;99.90
21001;DHT22;10658;50.920;12.238;2023-07-28T09:31:29;21.70;99.90
21001;DHT22;10658;50.920;12.238;2023-07-28T09:35:31;22.00;99.90
21001;DHT22;10658;50.920;12.238;2023-07-28T09:39:32;21.80;99.90
21001;DHT22;10658;50.920;12.238;2023-07-28T09:43:37;21.60;99.90
21001;DHT22;10658;50.920;12.238;2023-07-28T09:47:38;21.40;99.90
21001;DHT22;10658;50.920;12.238;2023-07-28T09:51:41;21.30;99.90
21001;DHT22;10658;50.920;12.238;2023-07-28T09:55:47;21.30;99.90
21001;DHT22;10658;50.920;12.238;2023-07-28T09:59:52;21.30;99.90
21001;DHT22;10658;50.920;12.238;2023-07-28T10:03:54;21.30;99.90
21001;DHT22;10658;50.920;12.238;2023-07-28T10:07:56;21.30;99.90
21001;DHT22;10658;50.920;12.238;2023-07-28T10:11:57;21.30;99.90
21001;DHT22;10658;50.920;12.238;2023-07-28T10:16:01;21.60;99.90
21001;DHT22;10658;50.920;12.238;2023-07-28T10:20:05;21.80;99.90
21001;DHT22;10658;50.920;12.238;2023-07-28T10:24:09;21.80;99.90
21001;DHT22;10658;50.920;12.238;2023-07-28T10:32:28;21.90;99.90
21001;DHT22;10658;50.920;12.238;2023-07-28T10:40:34;22.30;99.90
21001;DHT22;10658;50.920;12.238;2023-07-28T10:44:36;22.30;99.90
21001;DHT22;10658;50.920;12.238;2023-07-28T10:48:42;22.20;99.90
21001;DHT22;10658;50.920;12.238;2023-07-28T10:52:45;22.10;99.90
21001;DHT22;10658;50.920;12.238;2023-07-28T10:56:47;22.10;99.90
21001;DHT22;10658;50.920;12.238;2023-07-28T11:00:50;22.10;99.90
21001;DHT22;10658;50.920;12.238;2023-07-28T11:04:51;22.20;99.90
21001;DHT22;10658;50.920;12.238;2023-07-28T11:08:52;22.60;99.90
21001;DHT22;10658;50.920;12.238;2023-07-28T11:12:53;23.20;99.90
21001;DHT22;10658;50.920;12.238;2023-07-28T11:16:54;23.70;99.90
21001;DHT22;10658;50.920;12.238;2023-07-28T11:20:55;23.40;99.90
21001;DHT22;10658;50.920;12.238;2023-07-28T11:24:56;23.10;99.90
21001;DHT22;10658;50.920;12.238;2023-07-28T11:28:59;22.90;99.90
21001;DHT22;10658;50.920;12.238;2023-07-28T11:33:01;23.20;99.90
21001;DHT22;10658;50.920;12.238;2023-07-28T11:37:04;23.60;99.90
21001;DHT22;10658;50.920;12.238;2023-07-28T11:41:06;23.70;99.90
21001;DHT22;10658;50.920;12.238;2023-07-28T11:45:08;23.40;99.90
21001;DHT22;10658;50.920;12.238;2023-07-28T11:49:12;23.10;99.90
21001;DHT22;10658;50.920;12.238;2023-07-28T11:53:14;22.90;99.90
21001;DHT22;10658;50.920;12.238;2023-07-28T11:57:15;23.10;99.90
21001;DHT22;10658;50.920;12.238;2023-07-28T12:01:16;23.60;99.90
21001;DHT22;10658;50.920;12.238;2023-07-28T12:05:18;23.90;99.90
21001;DHT22;10658;50.920;12.238;2023-07-28T12:09:19;23.80;99.90
21001;DHT22;10658;50.920;12.238;2023-07-28T12:13:23;23.80;99.90
21001;DHT22;10658;50.920;12.238;2023-07-28T12:17:30;23.90;99.90
21001;DHT22;10658;50.920;12.238;2023-07-28T12:21:34;24.10;99.90
21001;DHT22;10658;50.920;12.238;2023-07-28T12:25:38;24.70;99.90
21001;DHT22;10658;50.920;12.238;2023-07-28T12:29:42;25.40;99.90
21001;DHT22;10658;50.920;12.238;2023-07-28T12:33:45;25.40;99.90
21001;DHT22;10658;50.920;12.238;2023-07-28T12:37:53;25.30;99.90
21001;DHT22;10658;50.920;12.238;2023-07-28T12:41:55;25.40;99.90
21001;DHT22;10658;50.920;12.238;2023-07-28T12:45:58;25.00;99.90
21001;DHT22;10658;50.920;12.238;2023-07-28T12:50:01;25.20;99.90
21001;DHT22;10658;50.920;12.238;2023-07-28T12:54:04;25.70;99.90
21001;DHT22;10658;50.920;12.238;2023-07-28T12:58:07;25.50;99.90
21001;DHT22;10658;50.920;12.238;2023-07-28T13:02:11;25.70;99.90
21001;DHT22;10658;50.920;12.238;2023-07-28T13:06:15;26.40;99.90
21001;DHT22;10658;50.920;12.238;2023-07-28T13:10:20;26.50;99.90
21001;DHT22;10658;50.920;12.238;2023-07-28T13:14:25;26.90;99.90
21001;DHT22;10658;50.920;12.238;2023-07-28T13:18:29;26.80;99.90
21001;DHT22;10658;50.920;12.238;2023-07-28T13:22:35;26.90;99.90
21001;DHT22;10658;50.920;12.238;2023-07-28T13:26:39;27.00;99.90
21001;DHT22;10658;50.920;12.238;2023-07-28T13:30:48;27.20;99.90
21001;DHT22;10658;50.920;12.238;2023-07-28T13:34:55;26.80;99.90
21001;DHT22;10658;50.920;12.238;2023-07-28T13:38:58;26.50;99.90
21001;DHT22;10658;50.920;12.238;2023-07-28T13:43:01;26.30;99.90
21001;DHT22;10658;50.920;12.238;2023-07-28T13:47:04;25.70;99.90
21001;DHT22;10658;50.920;12.238;2023-07-28T13:51:08;25.40;99.90
21001;DHT22;10658;50.920;12.238;2023-07-28T13:55:11;25.30;99.90
21001;DHT22;10658;50.920;12.238;2023-07-28T13:59:14;25.30;99.90
21001;DHT22;10658;50.920;12.238;2023-07-28T14:03:18;25.30;99.90
21001;DHT22;10658;50.920;12.238;2023-07-28T14:07:21;25.30;99.90
21001;DHT22;10658;50.920;12.238;2023-07-28T14:11:28;25.60;99.90
21001;DHT22;10658;50.920;12.238;2023-07-28T14:15:41;25.50;99.90
21001;DHT22;10658;50.920;12.238;2023-07-28T14:19:50;25.50;99.90
21001;DHT22;10658;50.920;12.238;2023-07-28T14:24:00;25.80;99.90
21001;DHT22;10658;50.920;12.238;2023-07-28T14:28:25;25.80;99.90
21001;DHT22;10658;50.920;12.238;2023-07-28T14:32:29;25.50;99.90
21001;DHT22;10658;50.920;12.238;2023-07-28T14:36:42;25.30;99.90
21001;DHT22;10658;50.920;12.238;2023-07-28T14:40:45;25.60;99.90
21001;DHT22;10658;50.920;12.238;2023-07-28T14:44:54;26.20;99.90
21001;DHT22;10658;50.920;12.238;2023-07-28T14:49:01;26.30;99.90
21001;DHT22;10658;50.920;12.238;2023-07-28T14:53:37;26.20;99.90
21001;DHT22;10658;50.920;12.238;2023-07-28T14:57:51;26.40;99.90
21001;DHT22;10658;50.920;12.238;2023-07-28T15:01:55;26.50;99.90
21001;DHT22;10658;50.920;12.238;2023-07-28T15:06:00;26.60;99.90
21001;DHT22;10658;50.920;12.238;2023-07-28T15:10:04;26.60;99.90
21001;DHT22;10658;50.920;12.238;2023-07-28T15:14:08;26.30;99.90
21001;DHT22;10658;50.920;12.238;2023-07-28T15:18:12;26.00;99.90
21001;DHT22;10658;50.920;12.238;2023-07-28T15:22:15;25.50;99.90
21001;DHT22;10658;50.920;12.238;2023-07-28T15:26:18;25.10;99.90
21001;DHT22;10658;50.920;12.238;2023-07-28T15:30:22;24.90;99.90
21001;DHT22;10658;50.920;12.238;2023-07-28T15:34:26;25.10;99.90
21001;DHT22;10658;50.920;12.238;2023-07-28T15:38:32;25.10;99.90
21001;DHT22;10658;50.920;12.238;2023-07-28T15:42:36;25.40;99.90
21001;DHT22;10658;50.920;12.238;2023-07-28T15:46:43;26.10;99.90
21001;DHT22;10658;50.920;12.238;2023-07-28T15:50:47;26.30;99.90
21001;DHT22;10658;50.920;12.238;2023-07-28T15:54:51;26.10;99.90
21001;DHT22;10658;50.920;12.238;2023-07-28T15:59:03;26.00;99.90
21001;DHT22;10658;50.920;12.238;2023-07-28T16:03:10;25.80;99.90
21001;DHT22;10658;50.920;12.238;2023-07-28T16:07:17;25.40;99.90
21001;DHT22;10658;50.920;12.238;2023-07-28T16:11:21;25.00;99.90
21001;DHT22;10658;50.920;12.238;2023-07-28T16:15:26;24.80;99.90
21001;DHT22;10658;50.920;12.238;2023-07-28T16:19:29;24.70;99.90
21001;DHT22;10658;50.920;12.238;2023-07-28T16:23:39;24.60;99.90
21001;DHT22;10658;50.920;12.238;2023-07-28T16:27:45;24.40;99.90
21001;DHT22;10658;50.920;12.238;2023-07-28T16:31:52;24.60;99.90
21001;DHT22;10658;50.920;12.238;2023-07-28T16:36:09;24.90;99.90
21001;DHT22;10658;50.920;12.238;2023-07-28T16:40:50;25.00;99.90
21001;DHT22;10658;50.920;12.238;2023-07-28T16:45:43;25.00;99.90
21001;DHT22;10658;50.920;12.238;2023-07-28T16:49:53;25.10;99.90
21001;DHT22;10658;50.920;12.238;2023-07-28T16:54:00;25.00;99.90
21001;DHT22;10658;50.920;12.238;2023-07-28T16:58:04;25.00;99.90
21001;DHT22;10658;50.920;12.238;2023-07-28T17:02:12;25.10;99.90
21001;DHT22;10658;50.920;12.238;2023-07-28T17:06:18;25.10;99.90
21001;DHT22;10658;50.920;12.238;2023-07-28T17:10:22;25.00;99.90
21001;DHT22;10658;50.920;12.238;2023-07-28T17:14:26;24.90;99.90
21001;DHT22;10658;50.920;12.238;2023-07-28T17:18:29;24.70;99.90
21001;DHT22;10658;50.920;12.238;2023-07-28T17:22:33;24.60;99.90
21001;DHT22;10658;50.920;12.238;2023-07-28T17:26:40;24.40;99.90
21001;DHT22;10658;50.920;12.238;2023-07-28T17:30:44;24.30;99.90
21001;DHT22;10658;50.920;12.238;2023-07-28T17:34:47;24.10;99.90
21001;DHT22;10658;50.920;12.238;2023-07-28T17:38:51;24.00;99.90
21001;DHT22;10658;50.920;12.238;2023-07-28T17:42:54;23.90;99.90
21001;DHT22;10658;50.920;12.238;2023-07-28T17:46:59;23.90;99.90
21001;DHT22;10658;50.920;12.238;2023-07-28T17:51:14;23.80;99.90
21001;DHT22;10658;50.920;12.238;2023-07-28T17:55:24;23.80;99.90
21001;DHT22;10658;50.920;12.238;2023-07-28T17:59:29;23.80;99.90
21001;DHT22;10658;50.920;12.238;2023-07-28T18:03:32;23.70;99.90
21001;DHT22;10658;50.920;12.238;2023-07-28T18:07:39;23.60;99.90
21001;DHT22;10658;50.920;12.238;2023-07-28T18:11:52;23.50;99.90
21001;DHT22;10658;50.920;12.238;2023-07-28T18:15:57;23.40;99.90
21001;DHT22;10658;50.920;12.238;2023-07-28T18:20:00;23.40;99.90
21001;DHT22;10658;50.920;12.238;2023-07-28T18:24:06;23.30;99.90
21001;DHT22;10658;50.920;12.238;2023-07-28T18:28:10;23.20;99.90
21001;DHT22;10658;50.920;12.238;2023-07-28T18:32:13;23.00;99.90
21001;DHT22;10658;50.920;12.238;2023-07-28T18:36:21;22.90;99.90
21001;DHT22;10658;50.920;12.238;2023-07-28T18:40:24;22.70;99.90
21001;DHT22;10658;50.920;12.238;2023-07-28T18:44:28;22.60;99.90
21001;DHT22;10658;50.920;12.238;2023-07-28T18:48:32;22.40;99.90
21001;DHT22;10658;50.920;12.238;2023-07-28T18:52:34;22.20;99.90
21001;DHT22;10658;50.920;12.238;2023-07-28T18:56:36;22.10;99.90
21001;DHT22;10658;50.920;12.238;2023-07-28T19:00:38;22.00;99.90
21001;DHT22;10658;50.920;12.238;2023-07-28T19:04:39;21.90;99.90
21001;DHT22;10658;50.920;12.238;2023-07-28T19:08:50;21.80;99.90
21001;DHT22;10658;50.920;12.238;2023-07-28T19:12:53;21.70;99.90
21001;DHT22;10658;50.920;12.238;2023-07-28T19:16:55;21.60;99.90
21001;DHT22;10658;50.920;12.238;2023-07-28T19:21:00;21.40;99.90
21001;DHT22;10658;50.920;12.238;2023-07-28T19:25:05;21.20;99.90
21001;DHT22;10658;50.920;12.238;2023-07-28T19:29:12;21.20;99.90
21001;DHT22;10658;50.920;12.238;2023-07-28T19:33:21;21.10;99.90
21001;DHT22;10658;50.920;12.238;2023-07-28T19:37:23;21.00;99.90
21001;DHT22;10658;50.920;12.238;2023-07-28T19:41:24;21.00;99.90
21001;DHT22;10658;50.920;12.238;2023-07-28T19:45:25;20.90;99.90
21001;DHT22;10658;50.920;12.238;2023-07-28T19:49:26;20.80;99.90
21001;DHT22;10658;50.920;12.238;2023-07-28T19:53:27;20.60;99.90
21001;DHT22;10658;50.920;12.238;2023-07-28T19:57:28;20.50;99.90
21001;DHT22;10658;50.920;12.238;2023-07-28T20:01:29;20.40;99.90
21001;DHT22;10658;50.920;12.238;2023-07-28T20:05:34;20.40;99.90
21001;DHT22;10658;50.920;12.238;2023-07-28T20:09:36;20.40;99.90
21001;DHT22;10658;50.920;12.238;2023-07-28T20:13:37;20.40;99.90
21001;DHT22;10658;50.920;12.238;2023-07-28T20:17:38;20.40;99.90
21001;DHT22;10658;50.920;12.238;2023-07-28T20:21:39;20.30;99.90
21001;DHT22;10658;50.920;12.238;2023-07-28T20:25:43;20.20;99.90
21001;DHT22;10658;50.920;12.238;2023-07-28T20:29:44;20.30;99.90
21001;DHT22;10658;50.920;12.238;2023-07-28T20:33:45;20.30;99.90
21001;DHT22;10658;50.920;12.238;2023-07-28T20:37:46;20.30;99.90
21001;DHT22;10658;50.920;12.238;2023-07-28T20:41:47;20.30;99.90
21001;DHT22;10658;50.920;12.238;2023-07-28T20:45:48;20.30;99.90
21001;DHT22;10658;50.920;12.238;2023-07-28T20:49:49;20.30;99.90
21001;DHT22;10658;50.920;12.238;2023-07-28T20:53:50;20.30;99.90
21001;DHT22;10658;50.920;12.238;2023-07-28T20:57:51;20.30;99.90
21001;DHT22;10658;50.920;12.238;2023-07-28T21:01:52;20.30;99.90
21001;DHT22;10658;50.920;12.238;2023-07-28T21:05:53;20.30;99.90
21001;DHT22;10658;50.920;12.238;2023-07-28T21:09:54;20.30;99.90
21001;DHT22;10658;50.920;12.238;2023-07-28T21:13:58;20.30;99.90
21001;DHT22;10658;50.920;12.238;2023-07-28T21:17:59;20.30;99.90
21001;DHT22;10658;50.920;12.238;2023-07-28T21:22:00;20.30;99.90
21001;DHT22;10658;50.920;12.238;2023-07-28T21:26:02;20.40;99.90
21001;DHT22;10658;50.920;12.238;2023-07-28T21:30:09;20.40;99.90
21001;DHT22;10658;50.920;12.238;2023-07-28T21:34:10;20.40;99.90
21001;DHT22;10658;50.920;12.238;2023-07-28T21:38:13;20.50;99.90
21001;DHT22;10658;50.920;12.238;2023-07-28T21:42:13;20.50;99.90
21001;DHT22;10658;50.920;12.238;2023-07-28T21:46:14;20.40;99.90
21001;DHT22;10658;50.920;12.238;2023-07-28T21:50:15;20.20;99.90
21001;DHT22;10658;50.920;12.238;2023-07-28T21:54:16;20.20;99.90
21001;DHT22;10658;50.920;12.238;2023-07-28T21:58:17;20.20;99.90
21001;DHT22;10658;50.920;12.238;2023-07-28T22:02:17;20.30;99.90
21001;DHT22;10658;50.920;12.238;2023-07-28T22:06:19;20.20;99.90
21001;DHT22;10658;50.920;12.238;2023-07-28T22:10:20;20.30;99.90
21001;DHT22;10658;50.920;12.238;2023-07-28T22:14:21;20.30;99.90
21001;DHT22;10658;50.920;12.238;2023-07-28T22:18:22;20.40;99.90
21001;DHT22;10658;50.920;12.238;2023-07-28T22:22:23;20.40;99.90
21001;DHT22;10658;50.920;12.238;2023-07-28T22:26:23;20.50;99.90
21001;DHT22;10658;50.920;12.238;2023-07-28T22:30:24;20.50;99.90
21001;DHT22;10658;50.920;12.238;2023-07-28T22:34:25;20.50;99.90
21001;DHT22;10658;50.920;12.238;2023-07-28T22:38:26;20.50;99.90
21001;DHT22;10658;50.920;12.238;2023-07-28T22:42:28;20.50;99.90
21001;DHT22;10658;50.920;12.238;2023-07-28T22:46:29;20.40;99.90
21001;DHT22;10658;50.920;12.238;2023-07-28T22:50:30;20.40;99.90
21001;DHT22;10658;50.920;12.238;2023-07-28T22:54:31;20.40;99.90
21001;DHT22;10658;50.920;12.238;2023-07-28T22:58:32;20.40;99.90
21001;DHT22;10658;50.920;12.238;2023-07-28T23:02:33;20.40;99.90
21001;DHT22;10658;50.920;12.238;2023-07-28T23:06:34;20.50;99.90
21001;DHT22;10658;50.920;12.238;2023-07-28T23:10:35;20.50;99.90
21001;DHT22;10658;50.920;12.238;2023-07-28T23:14:35;20.50;99.90
21001;DHT22;10658;50.920;12.238;2023-07-28T23:18:36;20.40;99.90
21001;DHT22;10658;50.920;12.238;2023-07-28T23:22:37;20.30;99.90
21001;DHT22;10658;50.920;12.238;2023-07-28T23:26:40;20.30;99.90
21001;DHT22;10658;50.920;12.238;2023-07-28T23:30:41;20.10;99.90
21001;DHT22;10658;50.920;12.238;2023-07-28T23:34:42;20.10;99.90
21001;DHT22;10658;50.920;12.238;2023-07-28T23:38:43;20.10;99.90
21001;DHT22;10658;50.920;12.238;2023-07-28T23:42:44;20.20;99.90
21001;DHT22;10658;50.920;12.238;2023-07-28T23:46:45;20.20;99.90
21001;DHT22;10658;50.920;12.238;2023-07-28T23:50:45;20.10;99.90
21001;DHT22;10658;50.920;12.238;2023-07-28T23:54:46;20.10;99.90
21001;DHT22;10658;50.920;12.238;2023-07-28T23:58:47;20.00;99.90
